createdAt,value
2017-12-26T00:02:17.966Z,22.87
2017-12-26T00:04:46.981Z,22.57
2017-12-26T00:07:16.815Z,22.47
2017-12-26T00:09:45.306Z,24.63
2017-12-26T00:12:13.611Z,24.27
2017-12-26T00:14:41.862Z,23.70
2017-12-26T00:17:10.235Z,22.30
2017-12-26T00:19:38.506Z,23.97
2017-12-26T00:22:06.750Z,22.70
2017-12-26T00:24:35.027Z,23.33
2017-12-26T00:27:04.046Z,22.73
2017-12-26T00:29:32.294Z,23.20
2017-12-26T00:32:01.650Z,23.53
2017-12-26T00:34:29.898Z,23.60
2017-12-26T00:36:58.382Z,24.13
2017-12-26T00:39:27.111Z,22.40
2017-12-26T00:41:55.362Z,24.17
2017-12-26T00:44:23.602Z,21.73
2017-12-26T00:46:51.884Z,23.83
2017-12-26T00:49:20.178Z,24.80
2017-12-26T00:51:48.513Z,23.07
2017-12-26T00:54:16.866Z,23.17
2017-12-26T00:56:45.113Z,23.30
2017-12-26T00:59:13.362Z,23.07
2017-12-26T01:01:41.638Z,22.57
2017-12-26T01:04:10.709Z,21.93
2017-12-26T01:06:38.946Z,22.23
2017-12-26T01:09:07.756Z,21.53
2017-12-26T01:11:35.990Z,22.57
2017-12-26T01:14:04.266Z,21.37
2017-12-26T01:16:32.784Z,20.70
2017-12-26T01:19:01.041Z,22.73
2017-12-26T01:21:29.283Z,22.97
2017-12-26T01:23:58.325Z,22.70
2017-12-26T01:26:26.562Z,24.50
2017-12-26T01:28:55.582Z,24.10
2017-12-26T01:31:23.901Z,24.00
2017-12-26T01:33:52.098Z,22.43
2017-12-26T01:36:21.266Z,21.63
2017-12-26T01:38:49.875Z,20.90
2017-12-26T01:41:18.343Z,21.70
2017-12-26T01:43:46.591Z,23.53
2017-12-26T01:46:23.676Z,21.53
2017-12-26T01:48:51.926Z,23.17
2017-12-26T01:51:21.374Z,20.90
2017-12-26T01:53:49.653Z,23.17
2017-12-26T01:56:17.907Z,21.40
2017-12-26T01:58:46.200Z,22.90
2017-12-26T02:01:15.434Z,23.57
2017-12-26T02:03:43.679Z,22.73
2017-12-26T02:06:11.954Z,25.23
2017-12-26T02:08:40.394Z,23.07
2017-12-26T02:11:10.942Z,22.87
2017-12-26T02:13:39.179Z,22.53
2017-12-26T02:16:07.450Z,22.53
2017-12-26T02:18:36.466Z,22.03
2017-12-26T02:21:04.715Z,22.17
2017-12-26T02:23:33.826Z,22.80
2017-12-26T02:26:02.070Z,21.33
2017-12-26T02:28:30.323Z,22.13
2017-12-26T02:30:58.623Z,22.83
2017-12-26T02:33:26.869Z,21.50
2017-12-26T02:35:55.115Z,23.70
2017-12-26T02:38:23.386Z,23.43
2017-12-26T02:40:53.574Z,23.17
2017-12-26T02:43:21.818Z,23.17
2017-12-26T02:45:50.158Z,23.60
2017-12-26T02:48:19.171Z,23.37
2017-12-26T02:50:47.425Z,22.30
2017-12-26T02:53:16.463Z,22.40
2017-12-26T02:55:44.762Z,22.47
2017-12-26T02:58:13.014Z,23.97
2017-12-26T03:00:41.286Z,22.80
2017-12-26T03:03:09.530Z,22.47
2017-12-26T03:05:37.853Z,22.57
2017-12-26T03:08:06.974Z,23.70
2017-12-26T03:10:35.350Z,23.53
2017-12-26T03:13:04.038Z,22.83
2017-12-26T03:15:32.306Z,22.07
2017-12-26T03:18:00.566Z,22.20
2017-12-26T03:20:28.822Z,23.03
2017-12-26T03:22:57.086Z,20.13
2017-12-26T03:25:25.339Z,19.90
2017-12-26T03:27:54.354Z,21.47
2017-12-26T03:30:22.839Z,20.93
2017-12-26T03:32:51.260Z,22.00
2017-12-26T03:35:19.482Z,22.33
2017-12-26T03:37:48.524Z,23.47
2017-12-26T03:40:16.774Z,21.93
2017-12-26T03:42:45.036Z,20.90
2017-12-26T03:45:14.218Z,22.60
2017-12-26T03:47:43.234Z,21.00
2017-12-26T03:50:11.493Z,23.37
2017-12-26T03:52:40.591Z,22.33
2017-12-26T03:55:09.611Z,22.97
2017-12-26T03:57:37.881Z,22.17
2017-12-26T04:00:06.163Z,21.70
2017-12-26T04:02:34.429Z,21.50
2017-12-26T04:05:02.766Z,21.63
2017-12-26T04:07:31.047Z,21.90
2017-12-26T04:09:59.518Z,20.97
2017-12-26T04:12:27.898Z,21.57
2017-12-26T04:14:57.095Z,23.00
2017-12-26T04:17:25.337Z,20.30
2017-12-26T04:19:53.654Z,23.37
2017-12-26T04:22:21.935Z,24.23
2017-12-26T04:24:50.178Z,22.00
2017-12-26T04:27:18.434Z,23.40
2017-12-26T04:29:46.713Z,20.57
2017-12-26T04:32:14.970Z,20.03
2017-12-26T04:34:44.266Z,21.30
2017-12-26T04:37:13.394Z,22.20
2017-12-26T04:39:41.638Z,21.60
2017-12-26T04:42:10.662Z,20.30
2017-12-26T04:44:38.930Z,22.10
2017-12-26T04:47:07.216Z,19.43
2017-12-26T04:49:35.486Z,20.43
2017-12-26T04:52:03.762Z,20.37
2017-12-26T04:54:32.194Z,21.30
2017-12-26T04:57:00.442Z,21.90
2017-12-26T04:59:30.062Z,21.70
2017-12-26T05:01:58.298Z,20.00
2017-12-26T05:04:26.586Z,20.63
2017-12-26T05:06:54.982Z,21.27
2017-12-26T05:09:25.230Z,18.87
2017-12-26T05:11:53.669Z,20.07
2017-12-26T05:14:22.015Z,20.10
2017-12-26T05:16:51.214Z,21.00
2017-12-26T05:19:19.457Z,20.63
2017-12-26T05:21:47.814Z,21.07
2017-12-26T05:24:16.122Z,20.60
2017-12-26T05:26:44.370Z,21.60
2017-12-26T05:29:12.779Z,19.70
2017-12-26T05:31:41.034Z,20.33
2017-12-26T05:34:09.278Z,20.90
2017-12-26T05:36:37.742Z,22.37
2017-12-26T05:39:06.758Z,20.60
2017-12-26T05:41:35.058Z,21.90
2017-12-26T05:44:03.422Z,20.53
2017-12-26T05:46:31.666Z,20.77
2017-12-26T05:49:00.686Z,20.40
2017-12-26T05:51:28.957Z,18.17
2017-12-26T05:53:57.231Z,19.90
2017-12-26T05:56:25.666Z,19.30
2017-12-26T05:58:53.942Z,18.70
2017-12-26T06:01:22.204Z,18.10
2017-12-26T06:03:50.494Z,18.93
2017-12-26T06:06:18.979Z,20.53
2017-12-26T06:08:47.302Z,20.20
2017-12-26T06:11:15.534Z,19.93
2017-12-26T06:13:43.875Z,18.40
2017-12-26T06:16:12.123Z,19.53
2017-12-26T06:18:41.229Z,18.97
2017-12-26T06:21:10.710Z,18.30
2017-12-26T06:23:39.738Z,20.93
2017-12-26T06:26:11.510Z,18.87
2017-12-26T06:28:39.771Z,19.30
2017-12-26T06:31:08.023Z,20.57
2017-12-26T06:33:37.225Z,20.77
2017-12-26T06:36:06.277Z,19.03
2017-12-26T06:38:34.518Z,21.03
2017-12-26T06:41:02.971Z,19.70
2017-12-26T06:43:32.070Z,20.60
2017-12-26T06:46:01.082Z,20.03
2017-12-26T06:48:31.043Z,19.10
2017-12-26T06:50:59.286Z,18.13
2017-12-26T06:53:27.534Z,19.87
2017-12-26T06:55:57.885Z,17.63
2017-12-26T06:58:26.194Z,18.53
2017-12-26T07:00:54.446Z,19.93
2017-12-26T07:03:22.718Z,20.33
2017-12-26T07:05:53.194Z,20.23
2017-12-26T07:08:23.842Z,20.60
2017-12-26T07:10:52.912Z,19.70
2017-12-26T07:13:22.324Z,20.60
2017-12-26T07:15:50.595Z,20.67
2017-12-26T07:18:18.861Z,20.57
2017-12-26T07:20:52.871Z,21.30
2017-12-26T07:23:21.094Z,19.40
2017-12-26T07:25:50.111Z,20.93
2017-12-26T07:28:18.813Z,20.93
2017-12-26T07:30:47.071Z,20.57
2017-12-26T07:33:15.358Z,20.77
2017-12-26T07:35:43.626Z,22.77
2017-12-26T07:38:11.894Z,19.93
2017-12-26T07:40:40.326Z,17.97
2017-12-26T07:43:08.638Z,19.30
2017-12-26T07:45:37.074Z,21.40
2017-12-26T07:48:05.318Z,21.50
2017-12-26T07:50:33.671Z,20.37
2017-12-26T07:53:01.905Z,21.53
2017-12-26T07:55:30.146Z,20.13
2017-12-26T07:57:58.561Z,20.30
2017-12-26T08:00:27.594Z,16.10
2017-12-26T08:02:55.847Z,16.17
2017-12-26T08:05:24.150Z,17.33
2017-12-26T08:07:53.170Z,18.33
2017-12-26T08:10:21.427Z,19.90
2017-12-26T08:12:50.238Z,20.10
2017-12-26T08:15:18.493Z,18.20
2017-12-26T08:17:47.506Z,19.77
2017-12-26T08:20:15.786Z,18.00
2017-12-26T08:22:44.502Z,18.70
2017-12-26T08:25:12.723Z,20.50
2017-12-26T08:27:41.758Z,20.10
2017-12-26T08:30:10.012Z,18.60
2017-12-26T08:32:38.262Z,20.60
2017-12-26T08:35:07.438Z,19.37
2017-12-26T08:37:35.682Z,20.07
2017-12-26T08:40:03.946Z,19.20
2017-12-26T08:42:32.238Z,20.70
2017-12-26T08:45:00.643Z,25.70
2017-12-26T08:47:29.946Z,18.40
2017-12-26T08:49:59.383Z,17.90
2017-12-26T08:52:28.860Z,18.70
2017-12-26T08:54:57.135Z,18.50
2017-12-26T08:57:25.686Z,16.57
2017-12-26T08:59:53.946Z,17.97
2017-12-26T09:02:22.375Z,18.33
2017-12-26T09:04:53.854Z,17.53
2017-12-26T09:07:22.878Z,15.17
2017-12-26T09:09:52.118Z,16.43
2017-12-26T09:12:20.674Z,15.23
2017-12-26T09:14:51.030Z,14.30
2017-12-26T09:17:19.311Z,16.27
2017-12-26T09:19:47.876Z,18.50
2017-12-26T09:22:16.123Z,17.40
2017-12-26T09:24:44.558Z,16.97
2017-12-26T09:27:12.958Z,16.50
2017-12-26T09:29:41.977Z,16.77
2017-12-26T09:32:10.226Z,15.27
2017-12-26T09:34:38.705Z,15.67
2017-12-26T09:37:07.727Z,14.73
2017-12-26T09:39:36.974Z,15.73
2017-12-26T09:42:05.734Z,17.13
2017-12-26T09:44:34.035Z,18.00
2017-12-26T09:47:03.334Z,18.03
2017-12-26T09:49:35.434Z,17.77
2017-12-26T09:52:04.562Z,14.70
2017-12-26T09:54:32.809Z,17.03
2017-12-26T09:57:02.106Z,16.90
2017-12-26T09:59:31.126Z,17.83
2017-12-26T10:01:59.450Z,18.10
2017-12-26T10:04:27.782Z,14.70
2017-12-26T10:06:56.034Z,15.63
2017-12-26T10:09:24.294Z,15.27
2017-12-26T10:11:52.677Z,13.77
2017-12-26T10:14:21.079Z,14.63
2017-12-26T10:16:50.086Z,13.50
2017-12-26T10:19:18.366Z,17.33
2017-12-26T10:21:46.798Z,15.30
2017-12-26T10:24:15.668Z,15.40
2017-12-26T10:26:45.187Z,16.80
2017-12-26T10:29:15.650Z,17.17
2017-12-26T10:31:43.942Z,17.23
2017-12-26T10:34:12.403Z,15.70
2017-12-26T10:36:41.436Z,15.73
2017-12-26T10:39:10.383Z,18.27
2017-12-26T10:41:38.774Z,17.77
2017-12-26T10:44:07.821Z,18.40
2017-12-26T10:46:36.111Z,18.87
2017-12-26T10:49:04.613Z,20.10
2017-12-26T10:51:32.866Z,18.70
2017-12-26T10:54:01.254Z,17.60
2017-12-26T10:56:29.661Z,17.50
2017-12-26T10:58:58.722Z,14.53
2017-12-26T11:01:27.958Z,14.70
2017-12-26T11:03:57.040Z,16.47
2017-12-26T11:06:25.448Z,16.30
2017-12-26T11:08:53.678Z,14.13
2017-12-26T11:11:23.196Z,13.70
2017-12-26T11:13:54.119Z,15.00
2017-12-26T11:16:22.530Z,16.90
2017-12-26T11:18:51.583Z,18.17
2017-12-26T11:21:20.571Z,15.43
2017-12-26T11:23:48.899Z,16.57
2017-12-26T11:26:18.506Z,16.07
2017-12-26T11:28:47.771Z,15.07
2017-12-26T11:31:16.022Z,15.10
2017-12-26T11:33:44.359Z,18.83
2017-12-26T11:36:12.606Z,17.00
2017-12-26T11:38:41.035Z,17.90
2017-12-26T11:41:09.419Z,18.00
2017-12-26T11:43:38.663Z,15.07
2017-12-26T11:46:07.042Z,15.10
2017-12-26T11:48:35.667Z,14.97
2017-12-26T11:51:03.979Z,12.73
2017-12-26T11:53:33.406Z,13.33
2017-12-26T11:56:03.732Z,9.10
2017-12-26T11:58:32.335Z,9.23
2017-12-26T12:01:00.616Z,6.53
2017-12-26T12:03:28.903Z,4.23
2017-12-26T12:06:02.063Z,4.20
2017-12-26T12:08:30.347Z,3.80
2017-12-26T12:10:58.818Z,3.00
2017-12-26T12:13:27.262Z,2.67
2017-12-26T12:15:55.654Z,1.90
2017-12-26T12:18:23.995Z,1.80
2017-12-26T12:20:54.186Z,1.80
2017-12-26T12:23:23.533Z,1.60
2017-12-26T12:25:52.532Z,2.53
2017-12-26T12:28:21.131Z,1.87
2017-12-26T12:30:49.570Z,2.20
2017-12-26T12:33:18.639Z,1.50
2017-12-26T12:35:46.911Z,1.93
2017-12-26T12:38:16.407Z,1.90
2017-12-26T12:40:46.738Z,1.33
2017-12-26T12:43:14.975Z,1.60
2017-12-26T12:45:43.258Z,1.23
2017-12-26T12:48:11.767Z,1.67
2017-12-26T12:50:40.907Z,1.30
2017-12-26T12:53:09.935Z,1.20
2017-12-26T12:55:38.174Z,1.13
2017-12-26T12:58:06.419Z,1.53
2017-12-26T13:00:34.935Z,1.60
2017-12-26T13:03:03.179Z,1.47
2017-12-26T13:05:31.459Z,1.20
2017-12-26T13:07:59.867Z,1.00
2017-12-26T13:10:34.971Z,1.40
2017-12-26T13:13:03.255Z,1.20
2017-12-26T13:15:31.514Z,1.40
2017-12-26T13:17:59.802Z,1.20
2017-12-26T13:20:28.117Z,1.10
2017-12-26T13:22:56.567Z,1.00
2017-12-26T13:25:24.963Z,0.93
2017-12-26T13:27:53.226Z,1.10
2017-12-26T13:30:21.483Z,1.17
2017-12-26T13:32:49.771Z,1.73
2017-12-26T13:35:18.310Z,1.03
2017-12-26T13:37:46.671Z,1.10
2017-12-26T13:40:14.911Z,1.10
2017-12-26T13:42:43.687Z,1.23
2017-12-26T13:45:11.976Z,1.20
2017-12-26T13:47:40.343Z,1.20
2017-12-26T13:50:08.602Z,1.03
2017-12-26T13:52:38.034Z,0.93
2017-12-26T13:55:06.304Z,0.90
2017-12-26T13:57:34.546Z,1.03
2017-12-26T14:00:02.797Z,1.20
2017-12-26T14:02:31.038Z,1.10
2017-12-26T14:04:59.698Z,0.90
2017-12-26T14:07:28.006Z,1.00
2017-12-26T14:09:56.382Z,1.00
2017-12-26T14:12:24.872Z,0.87
2017-12-26T14:14:54.370Z,0.90
2017-12-26T14:17:22.769Z,1.03
2017-12-26T14:19:51.324Z,1.17
2017-12-26T14:22:19.544Z,0.80
2017-12-26T14:24:48.562Z,1.00
2017-12-26T14:27:18.183Z,1.00
2017-12-26T14:29:47.442Z,1.23
2017-12-26T14:32:16.799Z,0.90
2017-12-26T14:34:45.063Z,1.00
2017-12-26T14:37:13.314Z,1.20
2017-12-26T14:39:41.546Z,1.10
2017-12-26T14:42:09.950Z,1.30
2017-12-26T14:44:38.950Z,0.90
2017-12-26T14:47:07.961Z,1.00
2017-12-26T14:49:36.793Z,1.10
2017-12-26T14:52:05.011Z,0.90
2017-12-26T14:54:34.014Z,1.30
2017-12-26T14:57:02.380Z,1.10
2017-12-26T14:59:31.387Z,1.20
2017-12-26T15:01:59.619Z,1.20
2017-12-26T15:04:27.894Z,1.30
2017-12-26T15:06:58.336Z,1.20
2017-12-26T15:09:26.716Z,0.90
2017-12-26T15:11:55.186Z,1.10
2017-12-26T15:14:23.445Z,1.30
2017-12-26T15:16:51.838Z,1.20
2017-12-26T15:19:20.107Z,1.10
2017-12-26T15:21:48.382Z,1.23
2017-12-26T15:24:16.598Z,1.10
2017-12-26T15:26:44.879Z,0.97
2017-12-26T15:29:14.353Z,1.10
2017-12-26T15:31:42.582Z,1.50
2017-12-26T15:34:10.893Z,1.20
2017-12-26T15:36:39.135Z,0.93
2017-12-26T15:39:07.562Z,1.23
2017-12-26T15:41:35.827Z,1.30
2017-12-26T15:44:04.066Z,1.67
2017-12-26T15:46:32.567Z,1.67
2017-12-26T15:49:00.807Z,1.30
2017-12-26T15:51:29.857Z,1.80
2017-12-26T15:53:58.074Z,1.63
2017-12-26T15:56:26.682Z,1.77
2017-12-26T15:58:54.931Z,1.57
2017-12-26T16:01:23.931Z,1.93
2017-12-26T16:03:55.380Z,1.63
2017-12-26T16:06:24.378Z,1.67
2017-12-26T16:08:53.394Z,1.43
2017-12-26T16:11:23.942Z,1.13
2017-12-26T16:13:53.366Z,1.33
2017-12-26T16:16:21.603Z,1.13
2017-12-26T16:18:50.009Z,1.10
2017-12-26T16:21:18.264Z,1.23
2017-12-26T16:23:47.602Z,1.10
2017-12-26T16:26:16.006Z,1.40
2017-12-26T16:28:45.011Z,1.50
2017-12-26T16:31:14.026Z,1.43
2017-12-26T16:33:42.482Z,1.20
2017-12-26T16:36:17.382Z,1.47
2017-12-26T16:38:45.785Z,1.50
2017-12-26T16:41:14.038Z,1.73
2017-12-26T16:43:42.307Z,1.73
2017-12-26T16:46:10.567Z,1.50
2017-12-26T16:48:38.802Z,1.90
2017-12-26T16:51:07.819Z,1.63
2017-12-26T16:53:36.419Z,2.30
2017-12-26T16:56:04.657Z,2.03
2017-12-26T16:58:33.657Z,1.50
2017-12-26T17:01:02.894Z,1.37
2017-12-26T17:03:31.128Z,1.60
2017-12-26T17:05:59.372Z,1.43
2017-12-26T17:08:27.632Z,1.53
2017-12-26T17:10:55.883Z,1.77
2017-12-26T17:13:24.131Z,1.80
2017-12-26T17:15:53.167Z,1.70
2017-12-26T17:18:21.403Z,1.13
2017-12-26T17:20:49.646Z,1.20
2017-12-26T17:23:17.953Z,1.37
2017-12-26T17:25:46.960Z,1.30
2017-12-26T17:28:15.193Z,1.40
2017-12-26T17:30:43.450Z,1.13
2017-12-26T17:33:11.693Z,1.30
2017-12-26T17:35:40.587Z,1.30
2017-12-26T17:38:08.837Z,1.40
2017-12-26T17:40:37.839Z,1.30
2017-12-26T17:43:06.854Z,1.90
2017-12-26T17:45:35.662Z,1.70
2017-12-26T17:48:03.898Z,1.57
2017-12-26T17:50:32.908Z,1.50
2017-12-26T17:53:01.175Z,1.60
2017-12-26T17:55:29.406Z,1.70
2017-12-26T17:57:57.642Z,1.53
2017-12-26T18:00:25.910Z,1.80
2017-12-26T18:02:54.150Z,1.70
2017-12-26T18:05:23.498Z,1.40
2017-12-26T18:07:51.829Z,1.63
2017-12-26T18:10:20.198Z,1.90
2017-12-26T18:12:48.438Z,1.90
2017-12-26T18:15:16.706Z,2.00
2017-12-26T18:17:44.955Z,1.50
2017-12-26T18:20:13.197Z,1.40
2017-12-26T18:22:41.449Z,1.70
2017-12-26T18:25:09.683Z,1.30
2017-12-26T18:27:38.702Z,1.70
2017-12-26T18:30:07.253Z,1.60
2017-12-26T18:32:35.485Z,1.80
2017-12-26T18:35:03.725Z,1.50
2017-12-26T18:37:32.757Z,1.50
2017-12-26T18:40:00.993Z,1.60
2017-12-26T18:42:29.427Z,1.60
2017-12-26T18:44:57.693Z,1.53
2017-12-26T18:47:25.925Z,1.67
2017-12-26T18:49:54.937Z,1.30
2017-12-26T18:52:23.297Z,1.50
2017-12-26T18:54:53.474Z,1.80
2017-12-26T18:57:21.745Z,1.40
2017-12-26T18:59:49.986Z,1.60
2017-12-26T19:02:18.234Z,1.90
2017-12-26T19:04:46.465Z,1.60
2017-12-26T19:07:14.777Z,1.30
2017-12-26T19:09:43.024Z,2.13
2017-12-26T19:12:11.277Z,1.50
2017-12-26T19:14:40.505Z,1.80
2017-12-26T19:17:08.726Z,1.40
2017-12-26T19:19:37.734Z,1.60
2017-12-26T19:22:06.298Z,1.87
2017-12-26T19:24:35.301Z,2.10
2017-12-26T19:27:04.305Z,1.70
2017-12-26T19:29:32.565Z,1.33
2017-12-26T19:32:00.807Z,1.57
2017-12-26T19:34:29.085Z,1.50
2017-12-26T19:36:57.529Z,2.00
2017-12-26T19:39:25.977Z,1.63
2017-12-26T19:41:54.985Z,2.33
2017-12-26T19:44:24.029Z,2.10
2017-12-26T19:46:52.246Z,1.73
2017-12-26T19:49:21.265Z,2.30
2017-12-26T19:51:49.541Z,2.40
2017-12-26T19:54:17.761Z,2.30
2017-12-26T19:56:45.999Z,2.27
2017-12-26T19:59:14.345Z,2.77
2017-12-26T20:01:42.793Z,2.47
2017-12-26T20:04:11.089Z,2.50
2017-12-26T20:06:39.314Z,2.33
2017-12-26T20:09:11.613Z,2.70
2017-12-26T20:11:39.869Z,2.30
2017-12-26T20:14:08.106Z,3.10
2017-12-26T20:16:37.358Z,2.90
2017-12-26T20:19:05.938Z,2.47
2017-12-26T20:21:34.166Z,2.87
2017-12-26T20:24:03.302Z,2.40
2017-12-26T20:26:31.881Z,2.50
2017-12-26T20:29:00.117Z,2.50
2017-12-26T20:31:28.555Z,2.10
2017-12-26T20:33:56.833Z,2.40
2017-12-26T20:36:25.062Z,2.67
2017-12-26T20:38:54.066Z,2.60
2017-12-26T20:41:22.805Z,2.60
2017-12-26T20:43:51.041Z,2.90
2017-12-26T20:46:19.287Z,2.73
2017-12-26T20:48:48.314Z,3.37
2017-12-26T20:51:16.558Z,3.17
2017-12-26T20:53:45.578Z,2.93
2017-12-26T20:56:13.838Z,2.60
2017-12-26T20:58:42.073Z,2.70
2017-12-26T21:01:10.310Z,3.40
2017-12-26T21:03:38.806Z,2.20
2017-12-26T21:06:07.107Z,2.77
2017-12-26T21:08:35.341Z,3.27
2017-12-26T21:11:03.614Z,3.20
2017-12-26T21:13:31.859Z,3.07
2017-12-26T21:16:00.098Z,3.10
2017-12-26T21:18:28.358Z,3.40
2017-12-26T21:20:56.930Z,3.40
2017-12-26T21:23:25.910Z,3.53
2017-12-26T21:25:54.230Z,2.90
2017-12-26T21:28:22.470Z,3.20
2017-12-26T21:30:50.713Z,2.97
2017-12-26T21:33:18.973Z,3.70
2017-12-26T21:35:47.347Z,2.57
2017-12-26T21:38:15.581Z,3.07
2017-12-26T21:40:43.851Z,3.17
2017-12-26T21:43:13.002Z,2.90
2017-12-26T21:45:41.246Z,2.80
2017-12-26T21:48:09.658Z,2.50
2017-12-26T21:50:38.026Z,3.23
2017-12-26T21:53:06.246Z,3.50
2017-12-26T21:55:34.509Z,3.00
2017-12-26T21:58:03.514Z,2.83
2017-12-26T22:00:32.526Z,2.80
2017-12-26T22:03:00.786Z,2.73
2017-12-26T22:05:29.796Z,3.37
2017-12-26T22:07:59.043Z,3.43
2017-12-26T22:10:27.365Z,3.30
2017-12-26T22:12:55.610Z,2.67
2017-12-26T22:15:23.850Z,3.10
2017-12-26T22:17:52.109Z,3.10
2017-12-26T22:20:20.350Z,2.87
2017-12-26T22:22:49.358Z,3.10
2017-12-26T22:25:18.389Z,3.20
2017-12-26T22:27:51.598Z,3.53
2017-12-26T22:30:20.153Z,3.50
2017-12-26T22:32:48.389Z,3.40
2017-12-26T22:35:16.882Z,3.00
2017-12-26T22:37:45.905Z,3.17
2017-12-26T22:40:14.150Z,2.80
2017-12-26T22:42:43.153Z,3.00
2017-12-26T22:45:12.280Z,3.63
2017-12-26T22:47:40.522Z,3.10
2017-12-26T22:50:08.759Z,3.60
2017-12-26T22:52:37.314Z,3.37
2017-12-26T22:55:06.545Z,3.70
2017-12-26T22:57:34.786Z,4.30
2017-12-26T23:00:03.050Z,3.60
2017-12-26T23:02:31.285Z,3.70
2017-12-26T23:04:59.522Z,3.60
2017-12-26T23:07:27.846Z,4.67
2017-12-26T23:09:56.088Z,3.80
2017-12-26T23:12:24.321Z,3.70
2017-12-26T23:14:58.434Z,3.83
2017-12-26T23:17:32.403Z,4.40
2017-12-26T23:20:06.506Z,4.03
2017-12-26T23:22:34.747Z,3.60
2017-12-26T23:25:08.673Z,3.43
2017-12-26T23:27:42.529Z,3.33
2017-12-26T23:30:16.801Z,3.70
2017-12-26T23:32:50.722Z,3.97
2017-12-26T23:35:24.549Z,3.50
2017-12-26T23:37:58.352Z,3.50
2017-12-26T23:40:32.382Z,3.43
2017-12-26T23:43:06.322Z,3.10
2017-12-26T23:45:40.865Z,3.30
2017-12-26T23:48:14.622Z,3.70
2017-12-26T23:50:48.586Z,3.53
2017-12-26T23:53:22.565Z,3.77
2017-12-26T23:55:57.165Z,3.67
2017-12-26T23:58:30.993Z,4.10
